createdAt,value
2023-02-14T00:01:12.839Z,10.10
2023-02-14T00:03:40.367Z,9.50
2023-02-14T00:06:14.109Z,7.13
2023-02-14T00:08:44.260Z,7.73
2023-02-14T00:11:13.223Z,8.43
2023-02-14T00:14:00.109Z,7.27
2023-02-14T00:16:26.901Z,8.13
2023-02-14T00:19:05.498Z,9.37
2023-02-14T00:21:35.995Z,6.57
2023-02-14T00:24:09.906Z,9.77
2023-02-14T00:26:38.589Z,6.13
2023-02-14T00:29:07.578Z,7.17
2023-02-14T00:31:35.572Z,8.00
2023-02-14T00:34:02.799Z,9.57
2023-02-14T00:36:29.640Z,6.63
2023-02-14T00:38:56.504Z,7.40
2023-02-14T00:41:23.329Z,5.77
2023-02-14T00:43:53.446Z,5.20
2023-02-14T00:46:22.652Z,7.07
2023-02-14T00:48:49.797Z,6.57
2023-02-14T00:51:18.319Z,5.77
2023-02-14T00:53:47.924Z,10.77
2023-02-14T00:56:15.684Z,6.43
2023-02-14T00:58:43.080Z,10.83
2023-02-14T01:01:11.018Z,5.07
2023-02-14T01:03:38.054Z,6.47
2023-02-14T01:06:06.084Z,5.73
2023-02-14T01:08:33.191Z,5.67
2023-02-14T01:11:19.462Z,7.10
2023-02-14T01:13:48.339Z,5.53
2023-02-14T01:16:22.740Z,4.93
2023-02-14T01:18:49.995Z,7.07
2023-02-14T01:21:26.732Z,6.13
2023-02-14T01:23:57.326Z,7.07
2023-02-14T01:26:26.108Z,4.67
2023-02-14T01:28:53.499Z,6.10
2023-02-14T01:31:30.087Z,6.00
2023-02-14T01:33:58.657Z,9.33
2023-02-14T01:36:36.347Z,7.60
2023-02-14T01:39:08.633Z,7.87
2023-02-14T01:41:37.939Z,6.97
2023-02-14T01:44:33.386Z,7.33
2023-02-14T01:47:07.534Z,10.57
2023-02-14T01:49:43.039Z,7.50
2023-02-14T01:52:37.486Z,6.17
2023-02-14T01:55:16.773Z,6.83
2023-02-14T01:57:52.984Z,7.03
2023-02-14T02:00:40.267Z,7.33
2023-02-14T02:03:09.344Z,5.37
2023-02-14T02:05:42.679Z,6.63
2023-02-14T02:08:09.661Z,7.30
2023-02-14T02:10:36.510Z,9.13
2023-02-14T02:13:08.162Z,6.87
2023-02-14T02:16:06.856Z,8.10
2023-02-14T02:19:03.815Z,7.07
2023-02-14T02:21:56.688Z,7.97
2023-02-14T02:24:39.361Z,7.67
2023-02-14T02:27:17.996Z,6.73
2023-02-14T02:30:42.589Z,9.47
2023-02-14T02:33:58.639Z,6.80
2023-02-14T02:37:02.579Z,5.37
2023-02-14T02:39:53.148Z,5.20
2023-02-14T02:43:00.304Z,6.37
2023-02-14T02:46:17.376Z,4.80
2023-02-14T02:49:03.500Z,7.10
2023-02-14T02:52:13.275Z,10.13
2023-02-14T02:54:51.773Z,6.97
2023-02-14T02:57:34.720Z,6.00
2023-02-14T03:00:05.959Z,5.03
2023-02-14T03:03:07.439Z,6.40
2023-02-14T03:05:35.777Z,7.10
2023-02-14T03:08:05.139Z,4.80
2023-02-14T03:10:38.013Z,4.67
2023-02-14T03:13:20.944Z,5.83
2023-02-14T03:16:08.754Z,4.13
2023-02-14T03:19:15.125Z,5.70
2023-02-14T03:22:19.689Z,5.03
2023-02-14T03:25:04.051Z,7.00
2023-02-14T03:27:47.138Z,7.53
2023-02-14T03:30:22.958Z,6.60
2023-02-14T03:33:16.368Z,8.43
2023-02-14T03:36:05.890Z,6.50
2023-02-14T03:38:47.321Z,8.33
2023-02-14T03:41:26.058Z,5.27
2023-02-14T03:44:01.823Z,5.70
2023-02-14T03:46:35.748Z,10.30
2023-02-14T03:49:10.592Z,4.90
2023-02-14T03:51:38.892Z,7.23
2023-02-14T03:54:10.727Z,7.63
2023-02-14T03:56:56.143Z,8.70
2023-02-14T03:59:26.820Z,5.40
2023-02-14T04:02:17.610Z,6.63
2023-02-14T04:04:48.391Z,8.20
2023-02-14T04:07:18.909Z,6.63
2023-02-14T04:09:46.835Z,7.10
2023-02-14T04:12:16.930Z,7.57
2023-02-14T04:14:45.217Z,6.87
2023-02-14T04:17:31.077Z,7.83
2023-02-14T04:19:57.780Z,8.90
2023-02-14T04:22:24.501Z,8.10
2023-02-14T04:24:51.358Z,7.87
2023-02-14T04:27:18.097Z,7.40
2023-02-14T04:29:49.243Z,8.07
2023-02-14T04:32:20.514Z,10.77
2023-02-14T04:34:47.792Z,8.80
2023-02-14T04:37:18.843Z,11.33
2023-02-14T04:39:46.167Z,9.83
2023-02-14T04:42:13.285Z,9.17
2023-02-14T04:44:40.241Z,14.07
2023-02-14T04:47:08.886Z,12.93
2023-02-14T04:49:36.214Z,13.07
2023-02-14T04:52:04.635Z,13.03
2023-02-14T04:54:33.261Z,8.93
2023-02-14T04:57:00.394Z,11.83
2023-02-14T04:59:27.382Z,16.90
2023-02-14T05:01:54.698Z,18.70
2023-02-14T05:04:21.654Z,14.20
2023-02-14T05:06:48.542Z,14.83
2023-02-14T05:09:15.467Z,14.17
2023-02-14T05:11:42.766Z,8.97
2023-02-14T05:14:09.838Z,9.67
2023-02-14T05:16:38.434Z,11.33
2023-02-14T05:19:05.540Z,8.50
2023-02-14T05:21:33.216Z,9.07
2023-02-14T05:24:01.785Z,9.13
2023-02-14T05:26:28.843Z,5.87
2023-02-14T05:28:56.614Z,8.33
2023-02-14T05:31:33.732Z,7.37
2023-02-14T05:34:09.118Z,9.90
2023-02-14T05:36:36.177Z,6.57
2023-02-14T05:39:03.546Z,8.27
2023-02-14T05:41:30.642Z,10.67
2023-02-14T05:43:57.400Z,7.37
2023-02-14T05:46:24.132Z,9.03
2023-02-14T05:48:51.522Z,6.10
2023-02-14T05:51:18.271Z,7.70
2023-02-14T05:53:45.089Z,6.27
2023-02-14T05:56:11.970Z,7.00
2023-02-14T05:58:38.803Z,8.63
2023-02-14T06:01:05.674Z,6.47
2023-02-14T06:03:32.593Z,7.47
2023-02-14T06:05:59.504Z,5.40
2023-02-14T06:08:26.361Z,4.67
2023-02-14T06:10:53.188Z,7.17
2023-02-14T06:13:19.929Z,5.47
2023-02-14T06:15:46.726Z,10.30
2023-02-14T06:18:13.480Z,5.53
2023-02-14T06:20:40.248Z,8.77
2023-02-14T06:23:07.089Z,7.77
2023-02-14T06:25:34.056Z,6.27
2023-02-14T06:28:01.128Z,6.10
2023-02-14T06:30:28.466Z,5.17
2023-02-14T06:32:55.596Z,5.57
2023-02-14T06:35:22.977Z,8.00
2023-02-14T06:37:49.827Z,6.83
2023-02-14T06:40:16.705Z,6.90
2023-02-14T06:42:44.316Z,5.90
2023-02-14T06:45:11.487Z,4.73
2023-02-14T06:47:38.443Z,6.90
2023-02-14T06:50:06.224Z,5.83
2023-02-14T06:52:33.768Z,5.57
2023-02-14T06:55:00.586Z,6.60
2023-02-14T06:57:27.830Z,5.13
2023-02-14T06:59:55.046Z,6.33
2023-02-14T07:02:24.758Z,6.43
2023-02-14T07:04:51.861Z,8.50
2023-02-14T07:07:18.625Z,11.37
2023-02-14T07:09:45.358Z,7.67
2023-02-14T07:12:12.145Z,12.30
2023-02-14T07:14:38.930Z,11.17
2023-02-14T07:17:05.872Z,13.37
2023-02-14T07:19:32.657Z,11.57
2023-02-14T07:21:59.357Z,11.30
2023-02-14T07:24:26.116Z,13.73
2023-02-14T07:26:52.812Z,7.80
2023-02-14T07:29:19.602Z,11.07
2023-02-14T07:31:46.501Z,13.07
2023-02-14T07:34:13.397Z,10.67
2023-02-14T07:36:40.204Z,10.67
2023-02-14T07:39:07.368Z,9.87
2023-02-14T07:41:34.121Z,7.03
2023-02-14T07:44:00.947Z,11.47
2023-02-14T07:46:27.724Z,8.17
2023-02-14T07:48:54.518Z,8.77
2023-02-14T07:51:21.214Z,10.73
2023-02-14T07:53:48.370Z,12.23
2023-02-14T07:56:15.178Z,10.30
2023-02-14T07:58:42.020Z,10.80
2023-02-14T08:01:08.834Z,8.53
2023-02-14T08:03:35.680Z,7.40
2023-02-14T08:06:02.608Z,7.50
2023-02-14T08:08:55.271Z,11.37
2023-02-14T08:11:40.401Z,9.00
2023-02-14T08:14:07.679Z,9.20
2023-02-14T08:16:34.711Z,6.70
2023-02-14T08:19:02.321Z,7.03
2023-02-14T08:21:29.620Z,7.27
2023-02-14T08:23:57.017Z,8.93
2023-02-14T08:26:23.977Z,10.67
2023-02-14T08:28:50.900Z,11.97
2023-02-14T08:31:35.707Z,9.67
2023-02-14T08:34:06.535Z,8.93
2023-02-14T08:36:34.885Z,9.00
2023-02-14T08:39:04.369Z,14.73
2023-02-14T08:41:31.994Z,14.10
2023-02-14T08:43:58.979Z,12.70
2023-02-14T08:46:26.343Z,14.47
2023-02-14T08:48:54.277Z,13.27
2023-02-14T08:51:22.737Z,15.27
2023-02-14T08:53:53.143Z,15.17
2023-02-14T08:56:22.563Z,14.93
2023-02-14T08:58:53.444Z,15.93
2023-02-14T09:01:20.962Z,12.07
2023-02-14T09:03:48.030Z,11.17
2023-02-14T09:06:17.204Z,11.67
2023-02-14T09:08:45.630Z,11.70
2023-02-14T09:11:23.230Z,13.75
2023-02-14T09:13:53.222Z,13.85
2023-02-14T09:16:21.603Z,19.58
2023-02-14T09:18:49.396Z,13.65
2023-02-14T09:21:23.017Z,14.77
2023-02-14T09:23:49.847Z,15.32
2023-02-14T09:26:18.139Z,12.80
2023-02-14T09:28:45.250Z,15.82
2023-02-14T09:31:21.500Z,13.73
2023-02-14T09:33:50.530Z,16.98
2023-02-14T09:36:17.545Z,19.40
2023-02-14T09:38:44.283Z,16.85
2023-02-14T09:41:29.829Z,20.92
2023-02-14T09:44:10.960Z,13.32
2023-02-14T09:46:50.567Z,18.75
2023-02-14T09:49:28.300Z,26.08
2023-02-14T09:51:55.489Z,20.85
2023-02-14T09:54:28.226Z,24.98
2023-02-14T09:57:45.502Z,19.27
2023-02-14T10:00:27.570Z,14.30
2023-02-14T10:03:12.724Z,17.80
2023-02-14T10:05:56.210Z,18.02
2023-02-14T10:08:58.915Z,17.55
2023-02-14T10:11:25.919Z,22.73
2023-02-14T10:14:02.181Z,13.27
2023-02-14T10:16:37.492Z,19.75
2023-02-14T10:19:27.377Z,17.33
2023-02-14T10:22:02.651Z,17.67
2023-02-14T10:24:41.904Z,17.05
2023-02-14T10:27:33.996Z,15.55
2023-02-14T10:30:02.909Z,16.02
2023-02-14T10:32:48.932Z,13.95
2023-02-14T10:35:49.117Z,14.38
2023-02-14T10:38:54.396Z,18.50
2023-02-14T10:41:35.584Z,13.65
2023-02-14T10:44:47.950Z,13.90
2023-02-14T10:47:42.111Z,18.95
2023-02-14T10:50:59.420Z,17.38
2023-02-14T10:53:56.956Z,14.90
2023-02-14T10:56:34.962Z,14.73
2023-02-14T10:59:21.755Z,14.18
2023-02-14T11:01:52.684Z,16.60
2023-02-14T11:04:23.738Z,16.58
2023-02-14T11:06:51.294Z,16.75
2023-02-14T11:09:19.231Z,15.50
2023-02-14T11:11:53.230Z,16.05
2023-02-14T11:14:35.697Z,14.10
2023-02-14T11:17:30.121Z,13.32
2023-02-14T11:20:09.505Z,15.85
2023-02-14T11:22:36.328Z,12.93
2023-02-14T11:25:28.486Z,15.55
2023-02-14T11:28:16.911Z,13.90
2023-02-14T11:30:47.504Z,18.27
2023-02-14T11:33:40.385Z,14.52
2023-02-14T11:36:17.465Z,13.43
2023-02-14T11:38:47.228Z,17.25
2023-02-14T11:41:16.786Z,13.85
2023-02-14T11:43:45.372Z,13.68
2023-02-14T11:46:21.336Z,15.45
2023-02-14T11:49:04.909Z,14.23
2023-02-14T11:51:40.574Z,12.93
2023-02-14T11:54:24.689Z,13.88
2023-02-14T11:56:56.961Z,12.88
2023-02-14T11:59:36.989Z,13.23
2023-02-14T12:02:40.519Z,13.68
2023-02-14T12:05:27.750Z,14.70
2023-02-14T12:07:58.936Z,11.90
2023-02-14T12:10:39.206Z,14.35
2023-02-14T12:13:08.830Z,14.75
2023-02-14T12:15:43.453Z,14.13
2023-02-14T12:18:50.294Z,13.10
2023-02-14T12:21:51.684Z,14.98
2023-02-14T12:24:38.195Z,17.38
2023-02-14T12:27:21.043Z,12.68
2023-02-14T12:30:16.854Z,13.25
2023-02-14T12:32:58.354Z,18.23
2023-02-14T12:36:06.701Z,14.43
2023-02-14T12:39:02.138Z,13.73
2023-02-14T12:41:48.186Z,14.87
2023-02-14T12:44:36.919Z,11.77
2023-02-14T12:47:16.623Z,11.93
2023-02-14T12:50:00.768Z,12.57
2023-02-14T12:52:56.077Z,11.40
2023-02-14T12:56:06.599Z,12.17
2023-02-14T13:03:34.652Z,13.17
2023-02-14T13:06:17.201Z,13.47
2023-02-14T13:09:11.256Z,13.33
2023-02-14T13:12:37.462Z,15.10
2023-02-14T13:16:01.362Z,14.60
2023-02-14T13:19:20.451Z,15.80
2023-02-14T13:21:49.536Z,17.23
2023-02-14T13:24:29.487Z,16.20
2023-02-14T13:27:01.648Z,20.30
2023-02-14T13:29:43.030Z,13.90
2023-02-14T13:32:15.412Z,16.73
2023-02-14T13:34:46.950Z,12.87
2023-02-14T13:37:20.361Z,11.77
2023-02-14T13:40:07.689Z,15.10
2023-02-14T13:42:52.143Z,11.70
2023-02-14T13:45:40.302Z,14.73
2023-02-14T13:48:29.275Z,15.60
2023-02-14T13:51:04.006Z,16.50
2023-02-14T13:53:48.662Z,18.77
2023-02-14T13:56:15.386Z,15.57
2023-02-14T13:59:01.249Z,17.00
2023-02-14T14:01:39.128Z,17.10
2023-02-14T14:04:31.951Z,17.50
2023-02-14T14:07:04.354Z,16.57
2023-02-14T14:09:43.274Z,18.17
2023-02-14T14:12:28.473Z,15.53
2023-02-14T14:15:07.956Z,17.23
2023-02-14T14:18:08.415Z,17.07
2023-02-14T14:20:52.375Z,18.73
2023-02-14T14:23:34.110Z,16.97
2023-02-14T14:26:01.998Z,15.47
2023-02-14T14:28:32.911Z,17.13
2023-02-14T14:30:59.983Z,15.63
2023-02-14T14:33:33.529Z,13.73
2023-02-14T14:36:08.829Z,18.90
2023-02-14T14:38:49.409Z,15.77
2023-02-14T14:41:16.381Z,16.80
2023-02-14T14:43:43.644Z,15.77
2023-02-14T14:46:15.783Z,16.63
2023-02-14T14:48:51.981Z,15.43
2023-02-14T14:51:35.097Z,15.60
2023-02-14T14:54:18.014Z,17.77
2023-02-14T14:56:59.215Z,17.87
2023-02-14T14:59:25.822Z,18.27
2023-02-14T15:01:54.324Z,19.20
2023-02-14T15:04:35.654Z,19.77
2023-02-14T15:07:33.256Z,19.17
2023-02-14T15:10:00.677Z,20.13
2023-02-14T15:12:46.918Z,26.10
2023-02-14T15:15:17.765Z,21.00
2023-02-14T15:17:46.488Z,20.00
2023-02-14T15:20:23.029Z,21.43
2023-02-14T15:22:54.048Z,22.90
2023-02-14T15:25:27.458Z,19.27
2023-02-14T15:27:54.270Z,20.40
2023-02-14T15:30:23.526Z,22.90
2023-02-14T15:32:52.250Z,20.90
2023-02-14T15:35:28.102Z,21.93
2023-02-14T15:38:00.768Z,22.17
2023-02-14T15:40:32.656Z,20.83
2023-02-14T15:43:25.124Z,25.50
2023-02-14T15:45:59.340Z,24.30
2023-02-14T15:48:33.936Z,23.50
2023-02-14T15:51:04.765Z,22.77
2023-02-14T15:53:42.495Z,25.03
2023-02-14T15:56:20.814Z,27.17
2023-02-14T15:58:49.469Z,26.73
2023-02-14T16:01:21.763Z,26.37
2023-02-14T16:03:53.516Z,22.87
2023-02-14T16:06:44.917Z,21.83
2023-02-14T16:09:53.371Z,25.80
2023-02-14T16:12:36.010Z,24.77
2023-02-14T16:15:31.746Z,27.13
2023-02-14T16:18:00.974Z,24.07
2023-02-14T16:20:39.947Z,28.80
2023-02-14T16:23:25.174Z,29.20
2023-02-14T16:25:53.142Z,25.07
2023-02-14T16:28:21.249Z,22.93
2023-02-14T16:30:55.510Z,27.50
2023-02-14T16:33:32.172Z,23.97
2023-02-14T16:36:26.025Z,20.63
2023-02-14T16:38:53.636Z,24.27
2023-02-14T16:41:26.046Z,22.33
2023-02-14T16:43:54.143Z,26.40
2023-02-14T16:46:25.489Z,24.33
2023-02-14T16:48:53.017Z,24.23
2023-02-14T16:51:23.088Z,24.23
2023-02-14T16:53:50.680Z,24.87
2023-02-14T16:56:32.270Z,24.87
2023-02-14T16:58:59.347Z,27.27
2023-02-14T17:01:26.317Z,25.33
2023-02-14T17:03:53.184Z,22.00
2023-02-14T17:06:24.574Z,26.63
2023-02-14T17:08:54.088Z,25.05
2023-02-14T17:11:23.417Z,22.93
2023-02-14T17:13:52.924Z,22.37
2023-02-14T17:16:20.289Z,25.83
2023-02-14T17:18:51.532Z,22.97
2023-02-14T17:21:23.020Z,25.03
2023-02-14T17:23:50.673Z,31.77
2023-02-14T17:26:20.067Z,25.53
2023-02-14T17:28:47.254Z,24.17
2023-02-14T17:31:14.160Z,29.60
2023-02-14T17:33:40.983Z,21.67
2023-02-14T17:36:13.587Z,22.80
2023-02-14T17:38:43.738Z,23.60
2023-02-14T17:41:18.496Z,24.97
2023-02-14T17:43:46.824Z,24.73
2023-02-14T17:46:14.776Z,26.07
2023-02-14T17:48:45.364Z,26.60
2023-02-14T17:51:13.382Z,35.63
2023-02-14T17:53:43.193Z,27.30
2023-02-14T17:56:20.292Z,27.77
2023-02-14T17:58:50.527Z,29.73
2023-02-14T18:01:22.465Z,24.20
2023-02-14T18:03:51.752Z,21.80
2023-02-14T18:06:19.364Z,21.63
2023-02-14T18:08:49.856Z,24.87
2023-02-14T18:11:19.220Z,26.67
2023-02-14T18:13:47.535Z,27.47
2023-02-14T18:16:18.207Z,31.93
2023-02-14T18:18:45.964Z,35.03
2023-02-14T18:21:16.102Z,27.40
2023-02-14T18:23:43.074Z,27.80
2023-02-14T18:26:15.513Z,28.50
2023-02-14T18:28:42.562Z,24.67
2023-02-14T18:31:16.804Z,26.20
2023-02-14T18:33:45.225Z,23.90
2023-02-14T18:36:16.468Z,22.93
2023-02-14T18:38:45.596Z,28.20
2023-02-14T18:41:16.475Z,28.23
2023-02-14T18:43:44.636Z,28.60
2023-02-14T18:46:15.872Z,23.97
2023-02-14T18:48:42.700Z,24.60
2023-02-14T18:51:21.681Z,29.20
2023-02-14T18:53:52.158Z,31.80
2023-02-14T18:56:22.926Z,25.37
2023-02-14T18:58:54.084Z,27.10
2023-02-14T19:01:25.499Z,28.77
2023-02-14T19:03:53.878Z,27.17
2023-02-14T19:06:21.774Z,26.83
2023-02-14T19:08:49.512Z,24.70
2023-02-14T19:11:21.221Z,26.03
2023-02-14T19:13:53.613Z,29.67
2023-02-14T19:16:34.498Z,25.00
2023-02-14T19:19:02.656Z,26.20
2023-02-14T19:21:34.050Z,31.37
2023-02-14T19:24:02.510Z,29.40
2023-02-14T19:26:32.891Z,35.17
2023-02-14T19:29:06.911Z,31.60
2023-02-14T19:31:40.316Z,35.87
2023-02-14T19:34:13.716Z,65.60
2023-02-14T19:36:40.505Z,158.00
2023-02-14T19:39:07.795Z,135.47
2023-02-14T19:41:35.780Z,45.40
2023-02-14T19:44:05.648Z,31.03
2023-02-14T19:46:34.092Z,26.67
2023-02-14T19:49:01.792Z,24.53
2023-02-14T19:51:32.999Z,27.13
2023-02-14T19:54:02.940Z,31.90
2023-02-14T19:56:34.303Z,31.07
2023-02-14T19:59:07.504Z,28.40
2023-02-14T20:01:39.384Z,30.30
2023-02-14T20:04:10.047Z,28.63
2023-02-14T20:06:38.326Z,28.50
2023-02-14T20:09:07.167Z,24.23
2023-02-14T20:11:46.627Z,25.53
2023-02-14T20:14:14.562Z,25.17
2023-02-14T20:16:41.684Z,25.63
2023-02-14T20:19:12.719Z,30.40
2023-02-14T20:21:45.874Z,25.50
2023-02-14T20:24:20.235Z,25.47
2023-02-14T20:26:48.606Z,25.33
2023-02-14T20:29:16.694Z,21.50
2023-02-14T20:31:50.915Z,21.27
2023-02-14T20:34:19.313Z,23.63
2023-02-14T20:36:55.501Z,25.67
2023-02-14T20:39:29.073Z,25.67
2023-02-14T20:41:56.040Z,23.37
2023-02-14T20:44:23.583Z,22.23
2023-02-14T20:46:53.670Z,25.27
2023-02-14T20:49:24.960Z,26.40
2023-02-14T20:51:52.564Z,25.97
2023-02-14T20:54:23.809Z,26.77
2023-02-14T20:56:51.160Z,26.40
2023-02-14T20:59:19.376Z,21.47
2023-02-14T21:01:46.342Z,22.60
2023-02-14T21:04:14.055Z,22.67
2023-02-14T21:06:40.939Z,24.70
2023-02-14T21:09:08.550Z,21.00
2023-02-14T21:11:35.360Z,22.37
2023-02-14T21:14:02.553Z,32.90
2023-02-14T21:16:30.280Z,22.77
2023-02-14T21:18:59.410Z,24.00
2023-02-14T21:21:35.989Z,26.17
2023-02-14T21:24:07.781Z,20.10
2023-02-14T21:26:35.106Z,22.73
2023-02-14T21:29:02.811Z,23.30
2023-02-14T21:31:31.795Z,22.83
2023-02-14T21:34:01.790Z,22.10
2023-02-14T21:36:32.211Z,25.60
2023-02-14T21:39:00.252Z,19.10
2023-02-14T21:41:31.051Z,28.20
2023-02-14T21:44:00.559Z,28.67
2023-02-14T21:46:31.481Z,21.27
2023-02-14T21:49:19.587Z,21.00
2023-02-14T21:51:48.140Z,20.17
2023-02-14T21:54:16.568Z,21.93
2023-02-14T21:56:44.537Z,24.27
2023-02-14T21:59:12.341Z,21.27
2023-02-14T22:01:42.153Z,23.77
2023-02-14T22:04:12.124Z,23.27
2023-02-14T22:06:41.809Z,21.70
2023-02-14T22:09:12.218Z,22.93
2023-02-14T22:11:38.964Z,23.67
2023-02-14T22:14:05.805Z,20.47
2023-02-14T22:16:32.989Z,23.30
2023-02-14T22:18:59.717Z,21.20
2023-02-14T22:21:27.475Z,21.20
2023-02-14T22:23:55.413Z,22.50
2023-02-14T22:26:26.516Z,20.83
2023-02-14T22:28:59.188Z,29.33
2023-02-14T22:31:30.069Z,24.60
2023-02-14T22:33:56.977Z,24.30
2023-02-14T22:36:23.783Z,21.40
2023-02-14T22:38:50.529Z,21.47
2023-02-14T22:41:23.990Z,24.63
2023-02-14T22:43:53.408Z,22.87
2023-02-14T22:46:26.949Z,23.90
2023-02-14T22:48:55.535Z,23.90
2023-02-14T22:51:30.150Z,23.03
2023-02-14T22:54:01.749Z,23.97
2023-02-14T22:56:34.147Z,24.20
2023-02-14T22:59:05.507Z,20.20
2023-02-14T23:01:35.835Z,22.23
2023-02-14T23:04:04.095Z,18.57
2023-02-14T23:06:33.948Z,19.80
2023-02-14T23:09:02.923Z,24.30
2023-02-14T23:11:32.981Z,20.93
2023-02-14T23:14:18.968Z,19.77
2023-02-14T23:17:05.064Z,18.37
2023-02-14T23:19:53.163Z,24.23
2023-02-14T23:22:27.600Z,22.30
2023-02-14T23:24:57.866Z,19.63
2023-02-14T23:27:43.699Z,24.73
2023-02-14T23:30:15.473Z,22.00
2023-02-14T23:32:42.439Z,23.17
2023-02-14T23:35:09.861Z,25.70
2023-02-14T23:37:36.735Z,24.13
2023-02-14T23:40:04.100Z,20.93
2023-02-14T23:42:30.890Z,24.30
2023-02-14T23:45:17.777Z,27.53
2023-02-14T23:47:44.568Z,23.73
2023-02-14T23:50:11.505Z,26.03
2023-02-14T23:52:41.564Z,27.53
2023-02-14T23:55:09.227Z,27.20
2023-02-14T23:57:37.210Z,18.80
